Time;durP1;ratioP1;P1;durP2;ratioP2;P2;SDS_P1;SDS_P2;PMS_P1;PMS_P2;Temp;Humidity;BMP_temperature;BMP_pressure;BME280_temperature;BME280_humidity;BME280_pressure;Samples;Min_cycle;Max_cycle;Signal;HPM_P1;HPM_P2
2021/04/18 00:00:20;;;;;;;6.22;3.53;;;;;;;19.01;39.86;100044.34;2051926;28;20023;-63
2021/04/18 00:01:20;;;;;;;6.95;3.45;;;;;;;19.04;39.72;100044.06;2055204;28;20417;-63
2021/04/18 00:02:21;;;;;;;5.97;3.43;;;;;;;19.02;39.80;100043.34;2050696;28;20026;-63
2021/04/18 00:03:21;;;;;;;6.03;4.10;;;;;;;19.02;39.91;100043.34;2052323;28;20031;-63
2021/04/18 00:04:22;;;;;;;6.70;3.43;;;;;;;19.02;39.88;100046.06;2052942;28;20114;-63
2021/04/18 00:05:26;;;;;;;5.80;3.33;;;;;;;19.01;39.88;100039.75;2049553;28;20077;-63
2021/04/18 00:06:26;;;;;;;7.75;3.53;;;;;;;19.01;39.72;100044.34;2054746;28;20136;-63
2021/04/18 00:07:27;;;;;;;6.00;4.03;;;;;;;19.01;39.91;100052.53;2052629;28;20031;-63
2021/04/18 00:08:27;;;;;;;6.20;3.27;;;;;;;19.01;39.79;100044.34;2047406;28;20034;-63
2021/04/18 00:09:28;;;;;;;6.10;3.47;;;;;;;18.99;40.08;100049.13;2049237;28;20027;-63
2021/04/18 00:10:33;;;;;;;6.00;3.87;;;;;;;18.98;39.79;100050.94;2051659;28;20025;-63
2021/04/18 00:11:34;;;;;;;4.68;3.47;;;;;;;18.98;39.82;100044.63;2048451;28;20078;-63
2021/04/18 00:12:35;;;;;;;5.60;3.57;;;;;;;18.98;39.84;100050.09;2049707;28;20034;-63
2021/04/18 00:13:35;;;;;;;5.68;3.92;;;;;;;18.97;40.09;100037.47;2055332;28;20039;-63
2021/04/18 00:14:37;;;;;;;5.80;3.50;;;;;;;18.96;39.91;100041.19;2054034;28;20030;-63
2021/04/18 00:15:42;;;;;;;6.93;3.90;;;;;;;18.96;39.96;100042.06;2055100;28;20054;-63
2021/04/18 00:16:42;;;;;;;6.78;3.85;;;;;;;18.95;40.04;100042.22;2054069;28;20029;-63
2021/04/18 00:17:43;;;;;;;5.50;3.20;;;;;;;18.92;40.01;100042.53;2052813;28;20022;-63
2021/04/18 00:18:43;;;;;;;4.87;3.10;;;;;;;18.94;40.11;100043.25;2055290;28;20030;-63
2021/04/18 00:19:44;;;;;;;5.70;3.60;;;;;;;18.92;40.04;100050.72;2054258;28;20041;-63
2021/04/18 00:20:44;;;;;;;4.17;3.20;;;;;;;18.93;39.94;100052.44;2054391;28;20035;-63
2021/04/18 00:21:45;;;;;;;7.60;3.37;;;;;;;18.92;40.02;100050.72;2055183;28;20038;-63
2021/04/18 00:22:45;;;;;;;5.10;2.90;;;;;;;18.91;40.17;100048.97;2054587;28;20022;-63
2021/04/18 00:23:55;;;;;;;6.13;3.43;;;;;;;18.90;40.10;100047.28;2055295;28;20566;-63
2021/04/18 00:24:55;;;;;;;5.75;3.10;;;;;;;18.91;40.04;100051.72;2052705;28;20518;-63
2021/04/18 00:25:56;;;;;;;4.73;3.10;;;;;;;18.91;40.01;100044.38;2053496;28;20485;-63
2021/04/18 00:26:56;;;;;;;6.60;3.73;;;;;;;18.89;39.95;100046.41;2054047;28;20026;-63
2021/04/18 00:27:57;;;;;;;6.63;3.27;;;;;;;18.89;40.12;100042.78;2055286;28;20034;-63
2021/04/18 00:28:57;;;;;;;4.83;3.03;;;;;;;18.93;39.91;100046.97;2046602;28;20031;-63
2021/04/18 00:29:58;;;;;;;4.80;2.80;;;;;;;18.93;39.93;100046.97;2054629;28;20403;-63
2021/04/18 00:30:59;;;;;;;5.67;3.20;;;;;;;18.93;39.87;100045.09;2054154;28;20031;-63
2021/04/18 00:31:59;;;;;;;4.32;3.13;;;;;;;18.96;39.85;100041.19;2054389;28;20075;-63
2021/04/18 00:33:00;;;;;;;5.37;3.20;;;;;;;18.96;39.85;100035.72;2054552;28;20046;-63
2021/04/18 00:34:01;;;;;;;5.73;3.37;;;;;;;18.96;39.93;100043.91;2054043;28;20514;-63
2021/04/18 00:35:01;;;;;;;7.00;3.77;;;;;;;18.95;39.87;100039.47;2054311;28;20105;-62
2021/04/18 00:36:03;;;;;;;5.97;3.30;;;;;;;18.94;40.02;100043.25;2055270;28;20027;-63
2021/04/18 00:37:03;;;;;;;5.05;3.17;;;;;;;18.94;39.96;100037.78;2054616;28;20027;-63
2021/04/18 00:38:04;;;;;;;5.53;3.20;;;;;;;18.94;39.84;100037.78;2054407;28;20097;-63
2021/04/18 00:39:04;;;;;;;6.40;3.47;;;;;;;18.95;39.81;100044.94;2054814;28;20199;-63
2021/04/18 00:40:14;;;;;;;4.27;2.57;;;;;;;18.94;39.85;100045.97;2054058;28;20022;-63
2021/04/18 00:41:14;;;;;;;4.18;2.92;;;;;;;18.93;39.96;100041.50;2054922;28;20113;-62
2021/04/18 00:42:15;;;;;;;4.53;3.20;;;;;;;18.94;39.98;100035.03;2053472;28;20027;-63
2021/04/18 00:43:15;;;;;;;4.60;3.20;;;;;;;18.95;39.87;100034.03;2053279;28;20023;-63
2021/04/18 00:44:16;;;;;;;6.10;4.10;;;;;;;18.95;39.87;100031.28;2047319;28;20034;-63
2021/04/18 00:45:18;;;;;;;5.43;3.00;;;;;;;18.94;39.84;100030.44;2051803;28;20628;-63
2021/04/18 00:46:19;;;;;;;5.47;2.97;;;;;;;18.96;39.92;100033.00;2054097;28;20027;-63
2021/04/18 00:47:19;;;;;;;5.73;3.53;;;;;;;18.97;39.97;100032.00;2049168;28;20031;-63
2021/04/18 00:48:20;;;;;;;5.57;3.23;;;;;;;18.97;39.96;100037.47;2053136;28;20030;-63
2021/04/18 00:49:20;;;;;;;5.33;3.57;;;;;;;18.96;39.83;100035.72;2054878;28;20026;-63
2021/04/18 00:50:25;;;;;;;5.00;3.17;;;;;;;18.96;40.04;100038.47;2052344;28;20042;-63
2021/04/18 00:51:26;;;;;;;4.78;3.10;;;;;;;18.97;39.85;100040.19;2054827;28;20022;-63
2021/04/18 00:52:26;;;;;;;5.40;3.20;;;;;;;18.98;39.91;100039.19;2053740;28;20030;-63
2021/04/18 00:53:26;;;;;;;4.90;3.20;;;;;;;18.98;39.77;100040.03;2047323;28;20122;-63
2021/04/18 00:54:27;;;;;;;5.13;3.17;;;;;;;18.99;39.68;100035.44;2052237;28;20442;-63
2021/04/18 00:55:28;;;;;;;6.22;3.20;;;;;;;18.99;39.89;100041.78;2054518;28;20109;-63
2021/04/18 00:56:29;;;;;;;4.77;3.50;;;;;;;19.00;39.76;100031.69;2052164;28;20085;-63
2021/04/18 00:57:30;;;;;;;4.70;3.20;;;;;;;19.01;39.71;100033.41;2054795;28;20101;-63
2021/04/18 00:58:33;;;;;;;5.33;3.47;;;;;;;19.00;39.74;100027.09;2051872;28;20019;-63
2021/04/18 00:59:34;;;;;;;6.18;3.45;;;;;;;19.02;39.73;100033.25;2054944;28;20015;-63
2021/04/18 01:00:36;;;;;;;5.67;3.33;;;;;;;19.01;39.63;100027.94;2053253;28;20038;-63
2021/04/18 01:01:36;;;;;;;;;;;;;;;18.96;39.81;100031.16;2055561;28;20050;-63
2021/04/18 01:02:37;;;;;;;4.30;2.67;;;;;;;18.96;39.91;100033.00;2052568;28;19922;-63
2021/04/18 01:03:37;;;;;;;6.10;3.10;;;;;;;18.97;39.74;100034.72;2054151;28;20549;-63
2021/04/18 01:04:38;;;;;;;4.97;3.17;;;;;;;18.97;39.91;100026.53;2054624;28;20509;-63
2021/04/18 01:05:38;;;;;;;4.93;3.33;;;;;;;18.98;39.73;100030.97;2053016;28;20060;-63
2021/04/18 01:06:39;;;;;;;5.10;3.37;;;;;;;18.98;39.68;100022.78;2050425;28;20019;-63
2021/04/18 01:07:39;;;;;;;4.30;2.87;;;;;;;18.99;39.83;100024.53;2053340;28;20038;-63
2021/04/18 01:08:40;;;;;;;4.40;3.10;;;;;;;18.98;39.80;100028.25;2050404;28;20027;-63
2021/04/18 01:09:41;;;;;;;4.67;3.40;;;;;;;18.96;39.76;100024.81;2053429;28;20118;-63
2021/04/18 01:10:41;;;;;;;5.87;3.23;;;;;;;18.99;39.72;100027.25;2052461;28;20035;-63
2021/04/18 01:11:42;;;;;;;4.73;3.23;;;;;;;18.99;39.84;100024.53;2055078;28;20031;-63
2021/04/18 01:12:43;;;;;;;5.63;2.93;;;;;;;18.96;39.91;100025.69;2051540;28;20111;-63
2021/04/18 01:13:43;;;;;;;6.07;3.07;;;;;;;18.95;39.82;100023.09;2054613;28;20034;-63
2021/04/18 01:14:44;;;;;;;3.92;2.63;;;;;;;18.94;39.87;100032.31;2053850;28;20349;-63
2021/04/18 01:15:45;;;;;;;5.20;3.17;;;;;;;18.93;39.87;100030.56;2054858;28;20138;-63
2021/04/18 01:16:45;;;;;;;9.47;3.90;;;;;;;18.93;39.95;100025.13;2052884;28;20031;-63
2021/04/18 01:17:46;;;;;;;6.23;3.70;;;;;;;18.93;39.88;100025.13;2054962;28;20037;-63
2021/04/18 01:18:47;;;;;;;4.57;3.03;;;;;;;18.92;39.84;100029.72;2053851;28;20776;-63
2021/04/18 01:19:47;;;;;;;5.00;3.37;;;;;;;18.93;39.84;100016.91;2052616;28;20031;-63
2021/04/18 01:20:47;;;;;;;7.30;2.73;;;;;;;18.92;39.86;100024.25;2053720;28;20118;-63
2021/04/18 01:21:48;;;;;;;8.27;3.37;;;;;;;18.92;40.05;100028.88;2051963;28;20039;-63
2021/04/18 01:22:53;;;;;;;5.93;3.43;;;;;;;18.90;39.87;100031.72;2054489;28;20035;-63
2021/04/18 01:23:54;;;;;;;5.25;3.10;;;;;;;18.89;39.99;100024.56;2052062;28;20027;-63
2021/04/18 01:24:55;;;;;;;4.30;3.03;;;;;;;18.90;40.09;100026.28;2051501;28;20042;-63
2021/04/18 01:25:55;;;;;;;4.63;2.40;;;;;;;18.90;39.97;100030.88;2053849;28;20034;-63
2021/04/18 01:26:55;;;;;;;6.93;3.43;;;;;;;18.89;39.94;100024.56;2053814;28;20371;-63
2021/04/18 01:27:56;;;;;;;4.33;2.77;;;;;;;18.91;39.98;100027.13;2054260;28;20063;-63
2021/04/18 01:28:57;;;;;;;5.53;3.43;;;;;;;18.92;39.86;100029.72;2051264;28;20097;-63
2021/04/18 01:29:57;;;;;;;4.20;2.80;;;;;;;18.92;40.16;100029.72;2054539;28;20042;-63
2021/04/18 01:30:58;;;;;;;4.57;2.90;;;;;;;18.95;39.98;100031.28;2053941;28;20038;-62
2021/04/18 01:31:58;;;;;;;4.30;2.97;;;;;;;18.94;39.82;100037.78;2054467;28;20035;-63
2021/04/18 01:33:01;;;;;;;4.60;2.80;;;;;;;18.94;39.88;100030.44;2050041;28;20043;-63
2021/04/18 01:34:02;;;;;;;4.40;2.88;;;;;;;18.95;39.92;100028.56;2052645;28;20114;-63
2021/04/18 01:35:03;;;;;;;4.43;2.60;;;;;;;18.94;39.94;100032.31;2053914;28;20081;-63
2021/04/18 01:36:05;;;;;;;5.13;3.27;;;;;;;18.93;39.93;100028.69;2054286;28;20031;-63
2021/04/18 01:37:06;;;;;;;4.43;2.78;;;;;;;18.94;39.96;100026.84;2054767;28;20033;-63
2021/04/18 01:38:10;;;;;;;5.33;3.33;;;;;;;18.93;39.97;100028.69;2049439;28;20038;-63
2021/04/18 01:39:11;;;;;;;5.35;3.10;;;;;;;18.95;39.85;100031.28;2057950;28;20088;-64
2021/04/18 01:40:15;;;;;;;4.97;3.20;;;;;;;18.95;39.95;100031.28;2062038;28;20088;-64
2021/04/18 01:41:15;;;;;;;4.50;2.30;;;;;;;18.98;39.81;100028.25;2053199;28;20054;-63
2021/04/18 01:42:18;;;;;;;4.10;2.63;;;;;;;18.96;39.90;100024.81;2054589;28;20046;-63
2021/04/18 01:43:19;;;;;;;3.38;2.47;;;;;;;18.95;39.74;100025.81;2052875;28;20034;-63
2021/04/18 01:44:20;;;;;;;5.00;3.17;;;;;;;18.95;39.78;100023.09;2053343;28;20852;-63
2021/04/18 01:45:23;;;;;;;4.00;2.97;;;;;;;18.95;39.92;100028.56;2053858;28;20498;-63
2021/04/18 01:46:23;;;;;;;6.05;3.25;;;;;;;18.95;39.81;100023.09;2053407;28;20147;-63
2021/04/18 01:47:24;;;;;;;4.77;3.33;;;;;;;18.95;39.81;100023.09;2054047;28;20642;-63
2021/04/18 01:48:24;;;;;;;4.03;2.40;;;;;;;18.96;39.90;100024.81;2054521;28;20129;-63
2021/04/18 01:49:25;;;;;;;4.43;2.90;;;;;;;18.95;39.85;100017.63;2053036;28;20023;-63
2021/04/18 01:50:27;;;;;;;3.97;2.57;;;;;;;18.98;39.77;100022.78;2050236;28;20663;-63
2021/04/18 01:51:27;;;;;;;4.53;2.83;;;;;;;18.97;39.70;100021.94;2051659;28;20049;-62
2021/04/18 01:52:28;;;;;;;4.17;3.20;;;;;;;18.99;39.84;100019.91;2054514;28;20154;-63
2021/04/18 01:53:28;;;;;;;5.37;3.40;;;;;;;18.98;39.81;100012.72;2053947;28;20630;-63
2021/04/18 01:54:28;;;;;;;3.90;2.47;;;;;;;18.98;39.76;100014.59;2052545;28;20066;-62
2021/04/18 01:55:29;;;;;;;4.67;2.97;;;;;;;18.98;39.85;100009.13;2053725;28;20035;-63
2021/04/18 01:56:30;;;;;;;4.27;3.00;;;;;;;18.98;39.82;100011.84;2061824;28;20088;-63
2021/04/18 01:57:31;;;;;;;5.13;3.40;;;;;;;18.99;39.87;100017.19;2060419;28;20022;-63
2021/04/18 01:58:34;;;;;;;4.20;2.25;;;;;;;19.00;39.64;100009.84;2054679;28;20030;-63
2021/04/18 01:59:35;;;;;;;4.00;2.70;;;;;;;19.01;39.83;100006.09;2051678;28;20050;-63
2021/04/18 02:00:35;;;;;;;3.77;2.87;;;;;;;19.02;39.97;100013.28;2053578;28;20148;-63
2021/04/18 02:01:39;;;;;;;4.27;2.60;;;;;;;19.03;39.64;100012.25;2054077;28;20058;-63
2021/04/18 02:02:41;;;;;;;6.72;2.80;;;;;;;19.02;39.67;100018.75;2053994;28;20030;-63
2021/04/18 02:03:42;;;;;;;4.47;2.60;;;;;;;19.03;39.56;100017.72;2053212;28;20046;-63
2021/04/18 02:04:43;;;;;;;4.07;2.70;;;;;;;19.02;39.80;100005.09;2053175;28;20627;-63
2021/04/18 02:05:43;;;;;;;4.10;3.10;;;;;;;19.00;39.68;100004.38;2053752;28;20023;-63
2021/04/18 02:06:43;;;;;;;4.50;3.37;;;;;;;19.00;39.65;100012.56;2052758;28;20092;-63
2021/04/18 02:07:44;;;;;;;3.73;2.20;;;;;;;18.98;39.66;100018.19;2054253;28;20038;-63
2021/04/18 02:08:44;;;;;;;4.00;2.47;;;;;;;18.99;39.68;100010.88;2052530;28;20037;-62
2021/04/18 02:09:45;;;;;;;4.40;3.43;;;;;;;18.99;39.76;100014.44;2052816;28;20678;-63
2021/04/18 02:10:45;;;;;;;3.90;2.43;;;;;;;18.98;39.81;100011.84;2053058;28;20026;-63
2021/04/18 02:11:46;;;;;;;3.83;2.87;;;;;;;18.97;39.69;100012.88;2051628;28;20114;-63
2021/04/18 02:12:47;;;;;;;6.43;2.87;;;;;;;18.96;39.81;100009.31;2053402;28;20041;-63
2021/04/18 02:13:47;;;;;;;5.03;2.93;;;;;;;18.95;39.84;100009.44;2050594;28;20034;-63
2021/04/18 02:14:47;;;;;;;4.10;2.63;;;;;;;18.96;39.84;100013.88;2053006;28;20043;-63
2021/04/18 02:15:48;;;;;;;5.00;2.90;;;;;;;18.93;39.88;100012.31;2054137;28;20153;-63
2021/04/18 02:16:48;;;;;;;4.20;2.77;;;;;;;18.94;39.84;100010.47;2053130;28;20096;-62
2021/04/18 02:17:49;;;;;;;3.93;2.40;;;;;;;18.94;39.70;100008.59;2054243;28;20031;-63
2021/04/18 02:18:49;;;;;;;4.40;2.53;;;;;;;18.93;39.84;100008.72;2054254;28;20027;-63
2021/04/18 02:19:50;;;;;;;4.03;2.50;;;;;;;18.93;39.84;100008.72;2047567;28;20093;-63
2021/04/18 02:20:50;;;;;;;3.60;2.40;;;;;;;18.92;39.75;100012.47;2046269;28;20065;-63
2021/04/18 02:21:51;;;;;;;4.37;2.67;;;;;;;18.92;39.81;100007.03;2054531;28;20081;-63
2021/04/18 02:22:51;;;;;;;5.47;2.43;;;;;;;18.92;39.78;100007.03;2053222;28;20023;-63
2021/04/18 02:23:52;;;;;;;4.03;2.37;;;;;;;18.91;39.85;100006.13;2054223;28;20462;-63
2021/04/18 02:24:53;;;;;;;4.20;2.43;;;;;;;18.91;39.87;100005.28;2053491;28;20054;-63
2021/04/18 02:25:53;;;;;;;5.13;3.53;;;;;;;18.91;39.87;100010.75;2053084;28;20026;-63
2021/04/18 02:26:54;;;;;;;3.73;2.60;;;;;;;18.91;40.07;100013.47;2053911;28;20471;-63
2021/04/18 02:27:54;;;;;;;3.30;2.53;;;;;;;18.90;40.10;100003.56;2053320;28;20022;-63
2021/04/18 02:28:54;;;;;;;4.10;2.83;;;;;;;18.91;39.87;100010.75;2054553;28;20038;-63
2021/04/18 02:29:55;;;;;;;5.47;3.37;;;;;;;18.92;39.87;100010.59;2048034;28;20065;-63
2021/04/18 02:30:56;;;;;;;4.17;2.07;;;;;;;18.95;39.82;100012.16;2054455;28;20105;-63
2021/04/18 02:31:56;;;;;;;3.60;2.47;;;;;;;18.95;39.98;100014.91;2053951;28;20023;-63
2021/04/18 02:32:57;;;;;;;4.13;2.50;;;;;;;18.95;39.84;100012.16;2053306;28;20038;-63
2021/04/18 02:33:57;;;;;;;4.13;2.70;;;;;;;18.95;39.81;100007.56;2054109;28;20692;-63
2021/04/18 02:34:58;;;;;;;4.20;2.70;;;;;;;18.95;39.87;100003.97;2053951;28;20102;-63
2021/04/18 02:35:59;;;;;;;3.63;2.38;;;;;;;18.94;39.85;100005.00;2053868;28;20035;-63
2021/04/18 02:36:59;;;;;;;2.97;2.17;;;;;;;18.95;39.76;100009.44;2054330;28;20031;-63
2021/04/18 02:38:00;;;;;;;4.17;2.67;;;;;;;18.93;39.85;100006.00;2054033;28;20031;-63
2021/04/18 02:39:00;;;;;;;3.30;2.20;;;;;;;18.92;39.89;100007.88;2054239;28;20070;-63
2021/04/18 02:40:01;;;;;;;3.57;2.27;;;;;;;18.92;39.92;100005.13;2053200;28;20537;-63
2021/04/18 02:41:01;;;;;;;3.87;2.63;;;;;;;18.94;39.80;100005.00;2052576;28;20123;-63
2021/04/18 02:42:02;;;;;;;3.97;2.30;;;;;;;18.93;39.77;100016.91;2054285;28;20101;-63
2021/04/18 02:43:03;;;;;;;4.53;2.60;;;;;;;18.94;39.88;100015.94;2052258;28;20457;-63
2021/04/18 02:44:04;;;;;;;3.40;2.27;;;;;;;18.95;39.76;100006.72;2052638;28;20042;-63
2021/04/18 02:45:05;;;;;;;5.07;2.67;;;;;;;18.93;39.97;100009.56;2049195;28;20031;-63
2021/04/18 02:46:05;;;;;;;4.65;2.65;;;;;;;18.95;39.77;100012.16;2053482;28;20447;-63
2021/04/18 02:47:06;;;;;;;3.97;2.60;;;;;;;18.94;39.76;100008.59;2050985;28;20110;-63
2021/04/18 02:48:06;;;;;;;3.53;2.10;;;;;;;18.95;39.91;100012.16;2053963;28;20052;-63
2021/04/18 02:49:07;;;;;;;4.10;2.50;;;;;;;18.95;39.95;100009.44;2053637;28;20109;-63
2021/04/18 02:50:08;;;;;;;3.33;2.13;;;;;;;18.95;39.81;100006.72;2053198;28;20027;-63
2021/04/18 02:51:09;;;;;;;4.43;2.70;;;;;;;18.95;39.85;100006.72;2053332;28;20034;-63
2021/04/18 02:52:09;;;;;;;3.90;3.00;;;;;;;18.94;39.75;100007.72;2054170;28;20045;-62
2021/04/18 02:53:10;;;;;;;2.93;2.47;;;;;;;18.94;39.78;100000.38;2054445;28;20027;-63
2021/04/18 02:54:11;;;;;;;3.30;2.40;;;;;;;18.98;39.83;100006.41;2054527;28;20034;-63
2021/04/18 02:55:12;;;;;;;3.03;2.23;;;;;;;19.00;39.75;100009.84;2054180;28;20074;-62
2021/04/18 02:56:12;;;;;;;3.20;2.05;;;;;;;19.01;39.70;100008.81;2056055;28;20034;-63
2021/04/18 02:57:12;;;;;;;3.10;2.27;;;;;;;19.02;39.62;100011.41;2053711;28;20033;-63
2021/04/18 02:58:13;;;;;;;4.13;2.87;;;;;;;19.01;39.61;100011.56;2055820;28;20064;-62
2021/04/18 02:59:13;;;;;;;4.00;2.77;;;;;;;19.00;39.65;100009.84;2055761;28;20105;-63
2021/04/18 03:00:14;;;;;;;4.90;2.50;;;;;;;19.02;39.72;100013.28;2051573;28;20027;-63
2021/04/18 03:01:15;;;;;;;4.20;2.53;;;;;;;19.00;39.64;100016.16;2056083;28;20067;-62
2021/04/18 03:02:16;;;;;;;3.60;2.80;;;;;;;19.02;39.55;100018.75;2054757;28;20086;-63
2021/04/18 03:03:17;;;;;;;3.17;2.47;;;;;;;19.01;39.70;100017.91;2054554;28;20030;-63
2021/04/18 03:04:18;;;;;;;3.43;2.27;;;;;;;19.00;39.66;100020.78;2054050;28;20026;-63
2021/04/18 03:05:19;;;;;;;3.10;2.03;;;;;;;19.00;39.68;100028.97;2055703;28;20867;-63
2021/04/18 03:06:19;;;;;;;4.17;2.57;;;;;;;19.01;39.56;100027.94;2055105;28;20046;-63
2021/04/18 03:07:19;;;;;;;4.30;2.50;;;;;;;19.00;39.79;100034.44;2055567;28;20075;-63
2021/04/18 03:08:20;;;;;;;4.37;2.40;;;;;;;19.00;39.67;100031.69;2054478;28;20063;-63
2021/04/18 03:09:20;;;;;;;3.50;2.23;;;;;;;18.97;39.69;100029.28;2054422;28;21690;-63
2021/04/18 03:10:21;;;;;;;4.03;2.50;;;;;;;18.98;39.69;100028.25;2055945;28;20034;-63
2021/04/18 03:11:23;;;;;;;3.53;2.50;;;;;;;18.97;39.69;100030.13;2055380;28;20037;-63
2021/04/18 03:12:23;;;;;;;3.92;2.30;;;;;;;18.97;39.66;100027.41;2055513;28;20082;-63
2021/04/18 03:13:24;;;;;;;3.77;2.60;;;;;;;18.95;39.73;100023.09;2054384;28;20027;-63
2021/04/18 03:14:24;;;;;;;4.17;2.93;;;;;;;18.95;39.82;100028.56;2054899;28;20039;-63
2021/04/18 03:15:25;;;;;;;3.87;2.20;;;;;;;18.94;39.74;100026.84;2055515;28;20035;-63
2021/04/18 03:16:25;;;;;;;3.70;2.90;;;;;;;18.93;39.72;100025.13;2055332;28;20042;-63
2021/04/18 03:17:25;;;;;;;4.63;2.73;;;;;;;18.91;39.86;100030.72;2055823;28;20113;-63
2021/04/18 03:18:26;;;;;;;4.30;3.00;;;;;;;18.92;39.78;100029.72;2052303;28;20034;-63
2021/04/18 03:19:26;;;;;;;4.60;2.77;;;;;;;18.92;39.96;100039.78;2054686;28;20031;-63
2021/04/18 03:20:27;;;;;;;3.03;2.47;;;;;;;18.91;39.83;100038.06;2055556;28;20627;-63
2021/04/18 03:21:27;;;;;;;3.07;2.13;;;;;;;18.91;39.88;100038.06;2051285;28;20054;-63
2021/04/18 03:22:28;;;;;;;5.13;2.37;;;;;;;18.90;39.92;100041.81;2055267;28;20106;-63
2021/04/18 03:23:28;;;;;;;3.17;2.20;;;;;;;18.89;39.95;100031.88;2055495;28;20041;-63
2021/04/18 03:24:29;;;;;;;2.90;2.07;;;;;;;18.90;39.95;100036.34;2050921;28;20035;-63
2021/04/18 03:25:29;;;;;;;3.87;2.43;;;;;;;18.89;39.99;100037.34;2054396;28;20033;-63
2021/04/18 03:26:29;;;;;;;3.00;2.00;;;;;;;18.89;39.88;100040.06;2050627;28;20027;-63
2021/04/18 03:27:30;;;;;;;2.93;2.03;;;;;;;18.90;39.92;100042.66;2054482;28;20027;-63
2021/04/18 03:28:31;;;;;;;3.20;2.30;;;;;;;18.89;39.99;100043.69;2058893;28;20470;-63
2021/04/18 03:29:31;;;;;;;3.63;2.47;;;;;;;18.91;39.98;100052.56;2061762;28;20042;-63
2021/04/18 03:30:32;;;;;;;3.93;2.20;;;;;;;18.92;39.79;100048.00;2051333;28;20054;-63
2021/04/18 03:31:33;;;;;;;4.07;2.38;;;;;;;18.93;39.75;100044.22;2054198;28;20038;-63
2021/04/18 03:32:34;;;;;;;4.30;2.37;;;;;;;18.93;39.84;100041.50;2055490;28;20138;-63
2021/04/18 03:33:35;;;;;;;2.50;1.88;;;;;;;18.93;39.88;100049.69;2055449;28;20034;-63
2021/04/18 03:34:35;;;;;;;3.73;2.50;;;;;;;18.92;40.04;100045.25;2054544;28;20589;-63
2021/04/18 03:35:36;;;;;;;4.50;2.70;;;;;;;18.91;39.74;100043.50;2055576;28;20153;-63
2021/04/18 03:36:36;;;;;;;5.63;2.53;;;;;;;18.92;39.77;100045.25;2054228;28;20061;-63
2021/04/18 03:37:36;;;;;;;4.07;2.80;;;;;;;18.93;39.91;100047.81;2055503;28;20038;-63
2021/04/18 03:38:37;;;;;;;3.90;2.27;;;;;;;18.93;39.87;100047.81;2051429;28;20046;-62
2021/04/18 03:39:37;;;;;;;3.77;2.63;;;;;;;18.92;39.83;100046.09;2054635;28;20149;-63
2021/04/18 03:40:38;;;;;;;3.73;2.30;;;;;;;18.93;39.81;100053.28;2055324;28;20065;-63
2021/04/18 03:41:39;;;;;;;3.57;2.30;;;;;;;18.93;39.80;100041.50;2054638;28;20030;-63
2021/04/18 03:42:39;;;;;;;3.20;2.47;;;;;;;18.92;39.95;100045.25;2054277;28;20880;-63
2021/04/18 03:43:40;;;;;;;2.83;2.00;;;;;;;18.93;39.76;100052.44;2054161;28;20077;-63
2021/04/18 03:44:40;;;;;;;3.97;1.93;;;;;;;18.93;39.75;100052.44;2054000;28;20125;-63
2021/04/18 03:45:41;;;;;;;3.53;2.30;;;;;;;18.93;39.77;100052.44;2055329;28;20081;-63
2021/04/18 03:46:42;;;;;;;3.27;2.40;;;;;;;18.94;39.75;100048.69;2054836;28;20033;-63
2021/04/18 03:47:44;;;;;;;3.03;1.98;;;;;;;18.92;39.85;100040.66;2054625;28;20037;-63
2021/04/18 03:48:44;;;;;;;3.45;2.30;;;;;;;18.93;39.81;100052.44;2055013;28;20103;-63
2021/04/18 03:49:44;;;;;;;3.67;2.23;;;;;;;18.94;39.80;100051.44;2053542;28;20046;-63
2021/04/18 03:50:45;;;;;;;4.93;2.60;;;;;;;18.94;39.83;100044.09;2054990;28;20030;-63
2021/04/18 03:51:46;;;;;;;4.97;2.90;;;;;;;18.94;39.80;100043.25;2055379;28;20193;-63
2021/04/18 03:52:54;;;;;;;3.72;2.50;;;;;;;18.97;39.64;100045.66;2055567;28;20065;-63
2021/04/18 03:53:55;;;;;;;3.10;2.20;;;;;;;18.96;39.67;100046.66;2050088;28;20482;-63
2021/04/18 03:54:55;;;;;;;3.70;2.40;;;;;;;18.97;39.69;100040.19;2055023;28;20405;-63
2021/04/18 03:55:56;;;;;;;2.80;1.80;;;;;;;18.97;39.81;100042.94;2055361;28;20033;-63
2021/04/18 03:56:56;;;;;;;3.60;2.50;;;;;;;19.00;39.65;100042.63;2054367;28;20027;-63
2021/04/18 03:57:57;;;;;;;3.53;2.17;;;;;;;18.99;39.62;100046.38;2055444;28;20054;-63
2021/04/18 03:58:57;;;;;;;3.17;2.27;;;;;;;19.00;39.56;100042.63;2055239;28;20033;-63
2021/04/18 03:59:58;;;;;;;3.20;2.00;;;;;;;19.00;39.68;100053.56;2054800;28;20498;-63
2021/04/18 04:00:58;;;;;;;3.37;2.27;;;;;;;19.00;39.67;100048.09;2052123;28;20050;-63
2021/04/18 04:01:58;;;;;;;3.63;2.17;;;;;;;19.01;39.59;100047.06;2054737;28;20038;-62
2021/04/18 04:02:59;;;;;;;2.93;1.77;;;;;;;19.02;39.63;100046.91;2055703;28;20051;-63
2021/04/18 04:03:59;;;;;;;3.27;2.47;;;;;;;19.03;39.57;100047.78;2053831;28;20062;-63
2021/04/18 04:05:00;;;;;;;2.90;2.00;;;;;;;19.00;39.60;100048.94;2061382;28;20086;-63
2021/04/18 04:06:01;;;;;;;3.97;2.43;;;;;;;19.02;39.59;100051.53;2061256;28;20092;-64
2021/04/18 04:07:01;;;;;;;4.37;3.17;;;;;;;19.00;39.55;100043.47;2054874;28;20054;-63
2021/04/18 04:08:05;;;;;;;4.67;2.00;;;;;;;19.01;39.66;100050.69;2055476;28;20037;-63
2021/04/18 04:09:05;;;;;;;3.92;2.13;;;;;;;18.99;39.73;100052.69;2054281;28;20022;-63
2021/04/18 04:10:06;;;;;;;3.87;2.17;;;;;;;19.00;39.67;100056.28;2054246;28;20023;-63
2021/04/18 04:11:07;;;;;;;3.03;1.93;;;;;;;18.97;39.80;100048.41;2054973;28;20564;-63
2021/04/18 04:12:07;;;;;;;3.90;2.33;;;;;;;18.97;39.69;100053.84;2054922;28;20053;-63
2021/04/18 04:13:08;;;;;;;3.23;2.20;;;;;;;18.94;39.79;100048.69;2053264;28;20118;-63
2021/04/18 04:14:08;;;;;;;2.87;2.13;;;;;;;18.93;39.80;100057.88;2054260;28;20039;-62
2021/04/18 04:15:09;;;;;;;4.00;2.20;;;;;;;18.93;39.78;100052.44;2052427;28;20046;-63
2021/04/18 04:16:10;;;;;;;3.47;2.03;;;;;;;18.91;39.90;100052.56;2055145;28;20034;-63
2021/04/18 04:17:10;;;;;;;2.60;1.80;;;;;;;18.90;39.86;100048.13;2055004;28;20113;-63
2021/04/18 04:18:10;;;;;;;5.20;2.40;;;;;;;18.91;39.80;100048.97;2053795;28;20054;-63
2021/04/18 04:19:11;;;;;;;3.63;2.20;;;;;;;18.89;39.83;100048.25;2054887;28;20656;-63
2021/04/18 04:20:12;;;;;;;3.83;2.13;;;;;;;18.89;39.78;100053.72;2052294;28;20027;-63
2021/04/18 04:21:12;;;;;;;3.47;2.05;;;;;;;18.89;39.70;100053.72;2055058;28;20055;-63
2021/04/18 04:22:13;;;;;;;3.30;1.87;;;;;;;18.89;39.81;100051.00;2059571;28;20110;-63
2021/04/18 04:23:14;;;;;;;4.10;2.03;;;;;;;18.89;39.95;100053.72;2062116;28;20113;-63
2021/04/18 04:24:14;;;;;;;3.50;2.30;;;;;;;18.89;39.88;100057.34;2054952;28;20042;-63
2021/04/18 04:25:15;;;;;;;4.03;2.67;;;;;;;18.88;39.88;100052.88;2054512;28;20030;-63
2021/04/18 04:26:15;;;;;;;4.13;2.63;;;;;;;18.88;39.90;100054.75;2055425;28;20040;-63
2021/04/18 04:27:16;;;;;;;3.63;2.27;;;;;;;18.89;39.78;100053.72;2050786;28;20061;-63
2021/04/18 04:28:16;;;;;;;3.97;2.60;;;;;;;18.89;39.87;100054.59;2055117;28;21013;-63
2021/04/18 04:29:16;;;;;;;3.97;2.03;;;;;;;18.91;39.85;100051.72;2054853;28;20030;-63
2021/04/18 04:30:17;;;;;;;3.13;2.23;;;;;;;18.89;39.92;100051.00;2052194;28;20031;-63
2021/04/18 04:31:18;;;;;;;2.30;2.00;;;;;;;18.92;39.76;100050.72;2052090;28;20031;-63
2021/04/18 04:32:18;;;;;;;2.77;1.93;;;;;;;18.92;39.60;100048.00;2053709;28;20057;-63
2021/04/18 04:33:19;;;;;;;3.37;2.63;;;;;;;18.93;39.77;100053.28;2055109;28;20042;-63
2021/04/18 04:34:19;;;;;;;2.93;2.10;;;;;;;18.92;39.69;100051.56;2053969;28;20044;-63
2021/04/18 04:35:21;;;;;;;3.87;2.10;;;;;;;18.92;39.76;100054.31;2055025;28;20110;-63
2021/04/18 04:36:21;;;;;;;3.33;2.03;;;;;;;18.91;39.65;100059.91;2055014;28;20029;-63
2021/04/18 04:37:22;;;;;;;2.60;1.80;;;;;;;18.93;39.75;100057.88;2054355;28;20084;-63
2021/04/18 04:38:22;;;;;;;3.10;2.20;;;;;;;18.92;39.73;100058.91;2047830;28;20031;-63
2021/04/18 04:39:23;;;;;;;2.37;1.70;;;;;;;18.93;39.73;100057.88;2052412;28;20042;-63
2021/04/18 04:40:24;;;;;;;3.70;2.20;;;;;;;18.93;39.63;100060.63;2062359;28;20034;-63
2021/04/18 04:41:25;;;;;;;2.75;2.20;;;;;;;18.93;39.78;100068.81;2056611;28;20445;-63
2021/04/18 04:42:25;;;;;;;2.87;1.90;;;;;;;18.93;39.79;100069.66;2050708;28;20164;-63